IBE05BF LEMD-LSGG
Flight info
| Callsign | IBE05BF |
|---|---|
| Flight time | 1h 26m |
| Altitude | 36000 |
| Route | PINAR N870 SEGRE N871 TOPTU DCT TOU DCT GAI DCT MEN/N0425F300 DCT NINUN DCT LATAM DCT ETREK DCT LUXAN G53 LTP Z16 BELUS |
| Aircraft | A320/M-SDE3FGHIRWY/LB1 |
Departure
| Time | 2026-05-06 08:35 |
|---|---|
| Airport | Adolfo Suárez Madrid–Barajas Airport (LEMD) |
Arrival
| Time | 2026-05-06 10:02 |
|---|---|
| Airport | Geneva International Airport (LSGG) |
| Time | Latitude | Longitude | Altitude | Speed | Heading |
|---|---|---|---|---|---|
| 2026-05-06 08:09 | 40.48838 | -3.58967 | 2022 ft | 0 kts | 269° |
| 2026-05-06 08:28 | 40.48838 | -3.58958 | 2022 ft | 4 kts | 269° |
| 2026-05-06 08:28 | 40.48838 | -3.58925 | 2025 ft | 2 kts | 269° |
| 2026-05-06 08:28 | 40.48841 | -3.58897 | 2029 ft | 4 kts | 236° |
| 2026-05-06 08:29 | 40.48860 | -3.58879 | 2028 ft | 4 kts | 184° |
| 2026-05-06 08:29 | 40.48878 | -3.58878 | 2025 ft | 0 kts | 180° |
| 2026-05-06 08:31 | 40.48872 | -3.58878 | 2026 ft | 3 kts | 180° |
| 2026-05-06 08:31 | 40.48840 | -3.58878 | 2027 ft | 7 kts | 180° |
| 2026-05-06 08:31 | 40.48780 | -3.58874 | 2022 ft | 10 kts | 165° |
| 2026-05-06 08:32 | 40.48760 | -3.58807 | 2022 ft | 9 kts | 91° |
| 2026-05-06 08:32 | 40.48759 | -3.58684 | 2022 ft | 16 kts | 90° |
| 2026-05-06 08:32 | 40.48759 | -3.58512 | 2019 ft | 22 kts | 89° |
| 2026-05-06 08:32 | 40.48762 | -3.58282 | 2011 ft | 28 kts | 89° |
| 2026-05-06 08:33 | 40.48762 | -3.58052 | 2003 ft | 22 kts | 90° |
| 2026-05-06 08:33 | 40.48763 | -3.57831 | 1995 ft | 27 kts | 89° |
| 2026-05-06 08:33 | 40.48772 | -3.57638 | 1990 ft | 17 kts | 63° |
| 2026-05-06 08:33 | 40.48890 | -3.57618 | 1990 ft | 19 kts | 359° |
| 2026-05-06 08:34 | 40.49028 | -3.57619 | 1990 ft | 20 kts | 0° |
| 2026-05-06 08:34 | 40.49230 | -3.57464 | 1984 ft | 17 kts | 50° |
| 2026-05-06 08:34 | 40.49365 | -3.57451 | 1983 ft | 29 kts | 359° |
| 2026-05-06 08:35 | 40.49806 | -3.57454 | 1986 ft | 98 kts | 360° |
| 2026-05-06 08:35 | 40.50711 | -3.57460 | 1996 ft | 156 kts | 0° |
| 2026-05-06 08:35 | 40.51863 | -3.57464 | 2470 ft | 166 kts | 360° |
| 2026-05-06 08:35 | 40.53021 | -3.57482 | 3195 ft | 167 kts | 360° |
| 2026-05-06 08:36 | 40.54242 | -3.57499 | 3667 ft | 186 kts | 360° |
| 2026-05-06 08:36 | 40.55610 | -3.57375 | 3971 ft | 209 kts | 11° |
| 2026-05-06 08:36 | 40.57071 | -3.56907 | 4319 ft | 229 kts | 16° |
| 2026-05-06 08:36 | 40.58626 | -3.56299 | 5051 ft | 234 kts | 17° |
| 2026-05-06 08:37 | 40.60189 | -3.55666 | 5894 ft | 237 kts | 17° |
| 2026-05-06 08:37 | 40.61778 | -3.55029 | 6697 ft | 240 kts | 16° |
| 2026-05-06 08:37 | 40.63394 | -3.54408 | 7468 ft | 243 kts | 11° |
| 2026-05-06 08:37 | 40.65083 | -3.54137 | 8247 ft | 246 kts | 3° |
| 2026-05-06 08:38 | 40.66798 | -3.53977 | 9048 ft | 249 kts | 2° |
| 2026-05-06 08:38 | 40.68532 | -3.53755 | 9852 ft | 253 kts | 11° |
| 2026-05-06 08:38 | 40.70180 | -3.52917 | 10573 ft | 257 kts | 31° |
| 2026-05-06 08:38 | 40.71594 | -3.51342 | 10942 ft | 280 kts | 51° |
| 2026-05-06 08:39 | 40.72754 | -3.49148 | 11192 ft | 303 kts | 55° |
| 2026-05-06 08:39 | 40.73981 | -3.46753 | 11412 ft | 327 kts | 55° |
| 2026-05-06 08:39 | 40.75283 | -3.44211 | 11862 ft | 340 kts | 55° |
| 2026-05-06 08:39 | 40.76622 | -3.41612 | 12552 ft | 345 kts | 54° |
| 2026-05-06 08:40 | 40.77981 | -3.38981 | 13285 ft | 349 kts | 54° |
| 2026-05-06 08:40 | 40.79359 | -3.36318 | 13993 ft | 353 kts | 54° |
| 2026-05-06 08:40 | 40.80752 | -3.33631 | 14614 ft | 357 kts | 54° |
| 2026-05-06 08:40 | 40.82161 | -3.30907 | 15219 ft | 362 kts | 54° |
| 2026-05-06 08:41 | 40.83594 | -3.28143 | 15810 ft | 366 kts | 53° |
| 2026-05-06 08:41 | 40.84951 | -3.25265 | 16395 ft | 373 kts | 61° |
| 2026-05-06 08:41 | 40.85914 | -3.22052 | 16988 ft | 380 kts | 72° |
| 2026-05-06 08:41 | 40.86583 | -3.18654 | 17567 ft | 385 kts | 74° |
| 2026-05-06 08:42 | 40.87253 | -3.15220 | 18231 ft | 387 kts | 73° |
| 2026-05-06 08:42 | 40.87929 | -3.11771 | 18796 ft | 390 kts | 73° |
| 2026-05-06 08:42 | 40.88619 | -3.08282 | 19264 ft | 395 kts | 73° |
| 2026-05-06 08:42 | 40.89319 | -3.04751 | 19759 ft | 400 kts | 74° |
| 2026-05-06 08:43 | 40.90018 | -3.01217 | 20207 ft | 406 kts | 74° |
| 2026-05-06 08:43 | 40.90734 | -2.97580 | 20676 ft | 411 kts | 74° |
| 2026-05-06 08:43 | 40.91457 | -2.93891 | 21146 ft | 417 kts | 74° |
| 2026-05-06 08:43 | 40.92186 | -2.90157 | 21617 ft | 422 kts | 74° |
| 2026-05-06 08:44 | 40.92921 | -2.86377 | 22078 ft | 427 kts | 75° |
| 2026-05-06 08:44 | 40.93663 | -2.82549 | 22536 ft | 432 kts | 75° |
| 2026-05-06 08:44 | 40.94414 | -2.78674 | 22984 ft | 438 kts | 75° |
| 2026-05-06 08:44 | 40.95174 | -2.74753 | 23415 ft | 443 kts | 75° |
| 2026-05-06 08:45 | 40.95941 | -2.70795 | 23816 ft | 447 kts | 75° |
| 2026-05-06 08:45 | 40.96716 | -2.66792 | 24211 ft | 451 kts | 75° |
| 2026-05-06 08:45 | 40.97494 | -2.62752 | 24567 ft | 455 kts | 75° |
| 2026-05-06 08:45 | 40.98277 | -2.58679 | 24941 ft | 458 kts | 75° |
| 2026-05-06 08:46 | 40.99063 | -2.54574 | 25313 ft | 461 kts | 75° |
| 2026-05-06 08:46 | 40.99848 | -2.50452 | 25677 ft | 464 kts | 75° |
| 2026-05-06 08:46 | 41.00640 | -2.46305 | 26037 ft | 466 kts | 74° |
| 2026-05-06 08:46 | 41.01712 | -2.42252 | 26381 ft | 468 kts | 64° |
| 2026-05-06 08:47 | 41.03256 | -2.38463 | 26731 ft | 468 kts | 54° |
| 2026-05-06 08:47 | 41.05225 | -2.35040 | 27068 ft | 467 kts | 44° |
| 2026-05-06 08:47 | 41.07559 | -2.32064 | 27408 ft | 465 kts | 35° |
| 2026-05-06 08:47 | 41.10097 | -2.29381 | 27745 ft | 467 kts | 34° |
| 2026-05-06 08:48 | 41.12647 | -2.26679 | 28062 ft | 471 kts | 34° |
| 2026-05-06 08:48 | 41.15183 | -2.23978 | 28356 ft | 474 kts | 34° |
| 2026-05-06 08:48 | 41.17758 | -2.21229 | 28669 ft | 477 kts | 34° |
| 2026-05-06 08:48 | 41.20354 | -2.18459 | 28973 ft | 479 kts | 34° |
| 2026-05-06 08:49 | 41.22958 | -2.15682 | 29282 ft | 482 kts | 34° |
| 2026-05-06 08:49 | 41.25581 | -2.12884 | 29583 ft | 484 kts | 34° |
| 2026-05-06 08:49 | 41.28212 | -2.10077 | 29858 ft | 486 kts | 34° |
| 2026-05-06 08:49 | 41.30860 | -2.07250 | 30136 ft | 488 kts | 34° |
| 2026-05-06 08:50 | 41.33513 | -2.04412 | 30406 ft | 490 kts | 34° |
| 2026-05-06 08:50 | 41.36167 | -2.01567 | 30674 ft | 491 kts | 34° |
| 2026-05-06 08:50 | 41.38829 | -1.98711 | 30913 ft | 492 kts | 35° |
| 2026-05-06 08:50 | 41.41496 | -1.95845 | 31140 ft | 493 kts | 35° |
| 2026-05-06 08:51 | 41.44168 | -1.92966 | 31413 ft | 493 kts | 35° |
| 2026-05-06 08:51 | 41.46828 | -1.90097 | 31725 ft | 492 kts | 35° |
| 2026-05-06 08:51 | 41.49492 | -1.87224 | 31977 ft | 493 kts | 35° |
| 2026-05-06 08:51 | 41.52164 | -1.84340 | 32260 ft | 493 kts | 35° |
| 2026-05-06 08:52 | 41.54824 | -1.81463 | 32579 ft | 493 kts | 35° |
| 2026-05-06 08:52 | 41.57484 | -1.78579 | 32920 ft | 491 kts | 35° |
| 2026-05-06 08:52 | 41.60130 | -1.75707 | 33241 ft | 490 kts | 35° |
| 2026-05-06 08:52 | 41.62771 | -1.72843 | 33568 ft | 488 kts | 35° |
| 2026-05-06 08:53 | 41.65409 | -1.69982 | 33882 ft | 488 kts | 35° |
| 2026-05-06 08:53 | 41.68042 | -1.67126 | 34165 ft | 487 kts | 35° |
| 2026-05-06 08:53 | 41.70676 | -1.64267 | 34422 ft | 486 kts | 35° |
| 2026-05-06 08:53 | 41.73304 | -1.61412 | 34668 ft | 486 kts | 35° |
| 2026-05-06 08:54 | 41.75894 | -1.58591 | 34904 ft | 486 kts | 35° |
| 2026-05-06 08:54 | 41.78509 | -1.55736 | 35192 ft | 484 kts | 35° |
| 2026-05-06 08:54 | 41.81117 | -1.52887 | 35436 ft | 484 kts | 36° |
| 2026-05-06 08:54 | 41.83725 | -1.50039 | 35620 ft | 484 kts | 36° |
| 2026-05-06 08:55 | 41.86337 | -1.47181 | 35815 ft | 484 kts | 36° |
| 2026-05-06 08:55 | 41.88943 | -1.44320 | 35981 ft | 485 kts | 36° |
| 2026-05-06 08:55 | 41.91553 | -1.41450 | 36029 ft | 483 kts | 36° |
| 2026-05-06 08:56 | 41.96743 | -1.35749 | 36026 ft | 482 kts | 36° |
| 2026-05-06 08:56 | 42.01919 | -1.30053 | 36026 ft | 480 kts | 36° |
| 2026-05-06 08:57 | 42.07086 | -1.24346 | 36025 ft | 480 kts | 36° |
| 2026-05-06 08:57 | 42.12251 | -1.18639 | 36018 ft | 480 kts | 36° |
| 2026-05-06 08:58 | 42.17411 | -1.12929 | 36009 ft | 480 kts | 36° |
| 2026-05-06 08:58 | 42.22569 | -1.07186 | 36024 ft | 481 kts | 36° |
| 2026-05-06 08:59 | 42.27730 | -1.01450 | 36007 ft | 481 kts | 36° |
| 2026-05-06 08:59 | 42.32891 | -0.95699 | 36002 ft | 481 kts | 36° |
| 2026-05-06 09:00 | 42.38043 | -0.89937 | 35988 ft | 481 kts | 36° |
| 2026-05-06 09:00 | 42.43055 | -0.84006 | 36005 ft | 484 kts | 45° |
| 2026-05-06 09:01 | 42.47258 | -0.76855 | 35998 ft | 486 kts | 50° |
| 2026-05-06 09:01 | 42.51381 | -0.69612 | 35980 ft | 486 kts | 50° |
| 2026-05-06 09:02 | 42.54813 | -0.63572 | 35980 ft | 486 kts | 50° |
| 2026-05-06 09:02 | 42.58926 | -0.56288 | 35985 ft | 487 kts | 50° |
| 2026-05-06 09:03 | 42.63042 | -0.48989 | 36002 ft | 487 kts | 50° |
| 2026-05-06 09:03 | 42.67159 | -0.41692 | 36000 ft | 486 kts | 51° |
| 2026-05-06 09:04 | 42.71267 | -0.34382 | 35984 ft | 486 kts | 51° |
| 2026-05-06 09:04 | 42.75370 | -0.27053 | 35989 ft | 486 kts | 51° |
| 2026-05-06 09:05 | 42.79465 | -0.19721 | 35990 ft | 486 kts | 51° |
| 2026-05-06 09:05 | 42.83657 | -0.12500 | 35991 ft | 486 kts | 48° |
| 2026-05-06 09:06 | 42.87956 | -0.05475 | 35990 ft | 485 kts | 47° |
| 2026-05-06 09:06 | 42.92311 | 0.01641 | 35983 ft | 486 kts | 48° |
| 2026-05-06 09:07 | 42.96595 | 0.08786 | 35983 ft | 486 kts | 49° |
| 2026-05-06 09:07 | 43.00854 | 0.15966 | 35983 ft | 487 kts | 49° |
| 2026-05-06 09:08 | 43.05101 | 0.23114 | 36006 ft | 487 kts | 49° |
| 2026-05-06 09:08 | 43.09371 | 0.30300 | 36006 ft | 487 kts | 49° |
| 2026-05-06 09:09 | 43.13637 | 0.37511 | 36007 ft | 487 kts | 49° |
| 2026-05-06 09:09 | 43.17905 | 0.44724 | 35993 ft | 488 kts | 49° |
| 2026-05-06 09:10 | 43.22180 | 0.51940 | 35990 ft | 488 kts | 49° |
| 2026-05-06 09:10 | 43.26445 | 0.59191 | 36009 ft | 488 kts | 49° |
| 2026-05-06 09:11 | 43.30698 | 0.66459 | 36009 ft | 488 kts | 49° |
| 2026-05-06 09:11 | 43.34951 | 0.73718 | 36009 ft | 488 kts | 49° |
| 2026-05-06 09:12 | 43.39204 | 0.81000 | 35988 ft | 488 kts | 49° |
| 2026-05-06 09:12 | 43.43448 | 0.88289 | 36003 ft | 488 kts | 50° |
| 2026-05-06 09:13 | 43.47683 | 0.95576 | 36002 ft | 487 kts | 50° |
| 2026-05-06 09:13 | 43.51903 | 1.02865 | 35997 ft | 486 kts | 50° |
| 2026-05-06 09:14 | 43.56115 | 1.10156 | 35994 ft | 486 kts | 50° |
| 2026-05-06 09:14 | 43.60317 | 1.17445 | 35982 ft | 486 kts | 50° |
| 2026-05-06 09:15 | 43.64523 | 1.24755 | 35994 ft | 486 kts | 50° |
| 2026-05-06 09:15 | 43.68718 | 1.32092 | 35996 ft | 486 kts | 51° |
| 2026-05-06 09:16 | 43.72779 | 1.39545 | 35997 ft | 486 kts | 52° |
| 2026-05-06 09:16 | 43.76746 | 1.47108 | 35992 ft | 485 kts | 53° |
| 2026-05-06 09:17 | 43.80718 | 1.54665 | 35973 ft | 485 kts | 52° |
| 2026-05-06 09:17 | 43.84717 | 1.62201 | 35987 ft | 485 kts | 52° |
| 2026-05-06 09:18 | 43.88715 | 1.69728 | 35990 ft | 484 kts | 52° |
| 2026-05-06 09:18 | 43.92667 | 1.77212 | 35979 ft | 484 kts | 53° |
| 2026-05-06 09:19 | 43.96625 | 1.84760 | 35982 ft | 484 kts | 53° |
| 2026-05-06 09:19 | 44.00480 | 1.92425 | 35967 ft | 484 kts | 54° |
| 2026-05-06 09:20 | 44.04271 | 2.00148 | 35985 ft | 483 kts | 55° |
| 2026-05-06 09:20 | 44.08065 | 2.07847 | 35968 ft | 483 kts | 54° |
| 2026-05-06 09:21 | 44.11878 | 2.15533 | 35981 ft | 483 kts | 54° |
| 2026-05-06 09:21 | 44.15691 | 2.23220 | 35971 ft | 482 kts | 54° |
| 2026-05-06 09:22 | 44.19490 | 2.30920 | 35959 ft | 483 kts | 55° |
| 2026-05-06 09:22 | 44.23276 | 2.38652 | 35970 ft | 483 kts | 55° |
| 2026-05-06 09:23 | 44.27060 | 2.46388 | 35964 ft | 482 kts | 55° |
| 2026-05-06 09:23 | 44.30844 | 2.54128 | 35982 ft | 482 kts | 55° |
| 2026-05-06 09:24 | 44.34626 | 2.61869 | 35984 ft | 482 kts | 55° |
| 2026-05-06 09:24 | 44.38373 | 2.69562 | 35964 ft | 482 kts | 56° |
| 2026-05-06 09:25 | 44.42133 | 2.77330 | 35963 ft | 482 kts | 56° |
| 2026-05-06 09:25 | 44.45884 | 2.85102 | 35954 ft | 482 kts | 56° |
| 2026-05-06 09:26 | 44.49638 | 2.92880 | 35955 ft | 482 kts | 56° |
| 2026-05-06 09:26 | 44.53390 | 3.00672 | 35950 ft | 482 kts | 56° |
| 2026-05-06 09:27 | 44.57132 | 3.08485 | 35930 ft | 483 kts | 56° |
| 2026-05-06 09:27 | 44.60874 | 3.16312 | 35947 ft | 483 kts | 57° |
| 2026-05-06 09:28 | 44.64335 | 3.24381 | 35949 ft | 482 kts | 62° |
| 2026-05-06 09:28 | 44.67530 | 3.32670 | 35946 ft | 482 kts | 63° |
| 2026-05-06 09:29 | 44.70729 | 3.40960 | 35940 ft | 482 kts | 62° |
| 2026-05-06 09:29 | 44.74002 | 3.49205 | 35939 ft | 482 kts | 61° |
| 2026-05-06 09:30 | 44.77296 | 3.57422 | 35925 ft | 482 kts | 61° |
| 2026-05-06 09:30 | 44.80590 | 3.65663 | 35928 ft | 482 kts | 61° |
| 2026-05-06 09:31 | 44.83850 | 3.73918 | 35929 ft | 482 kts | 62° |
| 2026-05-06 09:31 | 44.87099 | 3.82191 | 35912 ft | 482 kts | 62° |
| 2026-05-06 09:32 | 44.90348 | 3.90477 | 35904 ft | 483 kts | 62° |
| 2026-05-06 09:32 | 44.93598 | 3.98784 | 35915 ft | 484 kts | 62° |
| 2026-05-06 09:33 | 44.96854 | 4.07097 | 35921 ft | 484 kts | 62° |
| 2026-05-06 09:33 | 45.00097 | 4.15411 | 35929 ft | 483 kts | 62° |
| 2026-05-06 09:34 | 45.03329 | 4.23746 | 35903 ft | 483 kts | 62° |
| 2026-05-06 09:34 | 45.06557 | 4.32093 | 35907 ft | 484 kts | 62° |
| 2026-05-06 09:35 | 45.09791 | 4.40470 | 35911 ft | 485 kts | 62° |
| 2026-05-06 09:35 | 45.12994 | 4.48806 | 35928 ft | 485 kts | 63° |
| 2026-05-06 09:36 | 45.16219 | 4.57217 | 35695 ft | 485 kts | 63° |
| 2026-05-06 09:36 | 45.17831 | 4.61422 | 34950 ft | 489 kts | 63° |
| 2026-05-06 09:36 | 45.19465 | 4.65696 | 34061 ft | 494 kts | 63° |
| 2026-05-06 09:36 | 45.21103 | 4.69993 | 33240 ft | 495 kts | 63° |
| 2026-05-06 09:37 | 45.22727 | 4.74252 | 32739 ft | 488 kts | 63° |
| 2026-05-06 09:37 | 45.24337 | 4.78476 | 32122 ft | 484 kts | 63° |
| 2026-05-06 09:37 | 45.25930 | 4.82665 | 31538 ft | 480 kts | 64° |
| 2026-05-06 09:37 | 45.27509 | 4.86823 | 30955 ft | 477 kts | 64° |
| 2026-05-06 09:38 | 45.29079 | 4.90962 | 30392 ft | 473 kts | 64° |
| 2026-05-06 09:38 | 45.30630 | 4.95059 | 29781 ft | 468 kts | 64° |
| 2026-05-06 09:38 | 45.32160 | 4.99113 | 29201 ft | 462 kts | 64° |
| 2026-05-06 09:38 | 45.33663 | 5.03103 | 28650 ft | 455 kts | 64° |
| 2026-05-06 09:39 | 45.35146 | 5.07056 | 28108 ft | 449 kts | 64° |
| 2026-05-06 09:39 | 45.36606 | 5.10952 | 27573 ft | 444 kts | 64° |
| 2026-05-06 09:39 | 45.38052 | 5.14815 | 27063 ft | 439 kts | 64° |
| 2026-05-06 09:39 | 45.39457 | 5.18568 | 26570 ft | 434 kts | 64° |
| 2026-05-06 09:40 | 45.40868 | 5.22339 | 26079 ft | 429 kts | 64° |
| 2026-05-06 09:40 | 45.42263 | 5.26071 | 25603 ft | 424 kts | 64° |
| 2026-05-06 09:40 | 45.45004 | 5.33427 | 24680 ft | 415 kts | 64° |
| 2026-05-06 09:41 | 45.46349 | 5.37050 | 24223 ft | 411 kts | 63° |
| 2026-05-06 09:41 | 45.47773 | 5.40557 | 23765 ft | 407 kts | 56° |
| 2026-05-06 09:41 | 45.49581 | 5.43631 | 23343 ft | 402 kts | 45° |
| 2026-05-06 09:41 | 45.51723 | 5.46171 | 22745 ft | 400 kts | 34° |
| 2026-05-06 09:42 | 45.54101 | 5.48196 | 22313 ft | 397 kts | 30° |
| 2026-05-06 09:42 | 45.56486 | 5.50160 | 21846 ft | 395 kts | 30° |
| 2026-05-06 09:42 | 45.58859 | 5.52130 | 21373 ft | 394 kts | 30° |
| 2026-05-06 09:42 | 45.61218 | 5.54098 | 20888 ft | 391 kts | 31° |
| 2026-05-06 09:43 | 45.63557 | 5.56055 | 20406 ft | 388 kts | 31° |
| 2026-05-06 09:43 | 45.65877 | 5.57997 | 19935 ft | 385 kts | 30° |
| 2026-05-06 09:43 | 45.68180 | 5.59919 | 19462 ft | 382 kts | 30° |
| 2026-05-06 09:43 | 45.70487 | 5.61790 | 18998 ft | 379 kts | 29° |
| 2026-05-06 09:44 | 45.72791 | 5.63609 | 18537 ft | 377 kts | 28° |
| 2026-05-06 09:44 | 45.75057 | 5.65374 | 18062 ft | 375 kts | 28° |
| 2026-05-06 09:44 | 45.77338 | 5.67147 | 17736 ft | 368 kts | 28° |
| 2026-05-06 09:44 | 45.79566 | 5.68890 | 17627 ft | 364 kts | 28° |
| 2026-05-06 09:45 | 45.81786 | 5.70638 | 17472 ft | 362 kts | 28° |
| 2026-05-06 09:45 | 45.83993 | 5.72386 | 17303 ft | 362 kts | 28° |
| 2026-05-06 09:45 | 45.86191 | 5.74150 | 17144 ft | 361 kts | 31° |
| 2026-05-06 09:45 | 45.88190 | 5.76309 | 16974 ft | 360 kts | 44° |
| 2026-05-06 09:46 | 45.89848 | 5.78978 | 16816 ft | 358 kts | 54° |
| 2026-05-06 09:46 | 45.90813 | 5.80895 | 16708 ft | 358 kts | 55° |
| 2026-05-06 09:46 | 45.92271 | 5.83786 | 16542 ft | 357 kts | 55° |
| 2026-05-06 09:46 | 45.93731 | 5.86674 | 16388 ft | 357 kts | 54° |
| 2026-05-06 09:47 | 45.95206 | 5.89536 | 16220 ft | 356 kts | 51° |
| 2026-05-06 09:47 | 45.96912 | 5.92118 | 16064 ft | 356 kts | 45° |
| 2026-05-06 09:47 | 45.98666 | 5.94621 | 15891 ft | 356 kts | 45° |
| 2026-05-06 09:47 | 46.00417 | 5.97129 | 15746 ft | 355 kts | 45° |
| 2026-05-06 09:48 | 46.02167 | 5.99645 | 15590 ft | 355 kts | 46° |
| 2026-05-06 09:48 | 46.03909 | 6.02155 | 15424 ft | 354 kts | 46° |
| 2026-05-06 09:48 | 46.05643 | 6.04656 | 15271 ft | 353 kts | 46° |
| 2026-05-06 09:48 | 46.07373 | 6.07157 | 15107 ft | 352 kts | 46° |
| 2026-05-06 09:49 | 46.09099 | 6.09655 | 14949 ft | 352 kts | 46° |
| 2026-05-06 09:49 | 46.10825 | 6.12164 | 14610 ft | 354 kts | 46° |
| 2026-05-06 09:49 | 46.12545 | 6.14698 | 14185 ft | 353 kts | 46° |
| 2026-05-06 09:49 | 46.14258 | 6.17238 | 13783 ft | 352 kts | 46° |
| 2026-05-06 09:50 | 46.15955 | 6.19766 | 13347 ft | 350 kts | 46° |
| 2026-05-06 09:50 | 46.17618 | 6.22247 | 12954 ft | 346 kts | 46° |
| 2026-05-06 09:50 | 46.19305 | 6.24762 | 12554 ft | 342 kts | 46° |
| 2026-05-06 09:50 | 46.20936 | 6.27183 | 12168 ft | 340 kts | 46° |
| 2026-05-06 09:51 | 46.22591 | 6.29613 | 11778 ft | 339 kts | 46° |
| 2026-05-06 09:51 | 46.24244 | 6.32030 | 11384 ft | 337 kts | 46° |
| 2026-05-06 09:51 | 46.25883 | 6.34426 | 11002 ft | 334 kts | 46° |
| 2026-05-06 09:51 | 46.27514 | 6.36816 | 10612 ft | 332 kts | 46° |
| 2026-05-06 09:52 | 46.29131 | 6.39190 | 10297 ft | 331 kts | 46° |
| 2026-05-06 09:52 | 46.30718 | 6.41527 | 10085 ft | 322 kts | 46° |
| 2026-05-06 09:52 | 46.32255 | 6.43799 | 9871 ft | 314 kts | 46° |
| 2026-05-06 09:52 | 46.33773 | 6.46051 | 9584 ft | 313 kts | 46° |
| 2026-05-06 09:53 | 46.35298 | 6.48312 | 9257 ft | 309 kts | 46° |
| 2026-05-06 09:53 | 46.36773 | 6.50496 | 9117 ft | 298 kts | 47° |
| 2026-05-06 09:53 | 46.38279 | 6.52515 | 8673 ft | 298 kts | 32° |
| 2026-05-06 09:53 | 46.40190 | 6.53552 | 8315 ft | 289 kts | 3° |
| 2026-05-06 09:54 | 46.42074 | 6.53245 | 8181 ft | 262 kts | 334° |
| 2026-05-06 09:54 | 46.43567 | 6.51925 | 8031 ft | 245 kts | 317° |
| 2026-05-06 09:54 | 46.44795 | 6.50286 | 7744 ft | 236 kts | 301° |
| 2026-05-06 09:54 | 46.45407 | 6.48173 | 7406 ft | 225 kts | 277° |
| 2026-05-06 09:55 | 46.45638 | 6.45937 | 7055 ft | 222 kts | 266° |
| 2026-05-06 09:55 | 46.45417 | 6.43782 | 6993 ft | 215 kts | 248° |
| 2026-05-06 09:55 | 46.44735 | 6.41884 | 6867 ft | 210 kts | 231° |
| 2026-05-06 09:55 | 46.43764 | 6.40375 | 6645 ft | 205 kts | 225° |
| 2026-05-06 09:56 | 46.42782 | 6.38920 | 6390 ft | 202 kts | 225° |
| 2026-05-06 09:56 | 46.41804 | 6.37468 | 6131 ft | 203 kts | 225° |
| 2026-05-06 09:56 | 46.40802 | 6.35983 | 5841 ft | 209 kts | 225° |
| 2026-05-06 09:56 | 46.39768 | 6.34451 | 5571 ft | 214 kts | 225° |
| 2026-05-06 09:57 | 46.38723 | 6.32903 | 5271 ft | 214 kts | 225° |
| 2026-05-06 09:57 | 46.37681 | 6.31358 | 4986 ft | 214 kts | 225° |
| 2026-05-06 09:57 | 46.36639 | 6.29817 | 4686 ft | 214 kts | 225° |
| 2026-05-06 09:57 | 46.35607 | 6.28273 | 4362 ft | 212 kts | 226° |
| 2026-05-06 09:58 | 46.34582 | 6.26764 | 4169 ft | 207 kts | 225° |
| 2026-05-06 09:58 | 46.33568 | 6.25304 | 3858 ft | 206 kts | 225° |
| 2026-05-06 09:58 | 46.32585 | 6.23836 | 3562 ft | 196 kts | 225° |
| 2026-05-06 09:58 | 46.31677 | 6.22484 | 3456 ft | 177 kts | 225° |
| 2026-05-06 09:59 | 46.30862 | 6.21269 | 3191 ft | 163 kts | 225° |
| 2026-05-06 09:59 | 46.30096 | 6.20149 | 2895 ft | 154 kts | 224° |
| 2026-05-06 09:59 | 46.29364 | 6.19079 | 2624 ft | 145 kts | 226° |
| 2026-05-06 09:59 | 46.28685 | 6.18072 | 2390 ft | 135 kts | 225° |
| 2026-05-06 10:00 | 46.28018 | 6.17089 | 2150 ft | 137 kts | 226° |
| 2026-05-06 10:00 | 46.27336 | 6.16085 | 2035 ft | 138 kts | 227° |
| 2026-05-06 10:00 | 46.26656 | 6.15085 | 1859 ft | 143 kts | 225° |
| 2026-05-06 10:00 | 46.25955 | 6.14049 | 1669 ft | 144 kts | 225° |
| 2026-05-06 10:01 | 46.25238 | 6.12993 | 1462 ft | 147 kts | 225° |
| 2026-05-06 10:01 | 46.24540 | 6.11974 | 1371 ft | 130 kts | 225° |
| 2026-05-06 10:01 | 46.24000 | 6.11182 | 1377 ft | 99 kts | 225° |
| 2026-05-06 10:01 | 46.23624 | 6.10633 | 1385 ft | 56 kts | 225° |
| 2026-05-06 10:02 | 46.23400 | 6.10306 | 1399 ft | 36 kts | 225° |
| 2026-05-06 10:02 | 46.23217 | 6.10122 | 1403 ft | 30 kts | 199° |
| 2026-05-06 10:02 | 46.23082 | 6.10123 | 1396 ft | 12 kts | 136° |
| 2026-05-06 10:02 | 46.23021 | 6.10211 | 1395 ft | 13 kts | 135° |
| 2026-05-06 10:03 | 46.22962 | 6.10298 | 1397 ft | 11 kts | 132° |
| 2026-05-06 10:03 | 46.22966 | 6.10337 | 1396 ft | 0 kts | 47° |
| 2026-05-06 10:03 | 46.22968 | 6.10343 | 1401 ft | 4 kts | 56° |
| 2026-05-06 10:03 | 46.22981 | 6.10376 | 1394 ft | 3 kts | 59° |
| 2026-05-06 10:04 | 46.22993 | 6.10404 | 1396 ft | 4 kts | 54° |
| 2026-05-06 10:04 | 46.23008 | 6.10433 | 1395 ft | 3 kts | 62° |
| 2026-05-06 10:04 | 46.23003 | 6.10464 | 1393 ft | 3 kts | 124° |
| 2026-05-06 10:04 | 46.22985 | 6.10487 | 1394 ft | 3 kts | 139° |
| 2026-05-06 10:05 | 46.22978 | 6.10494 | 1396 ft | 0 kts | 137° |
| 2026-05-06 10:05 | 46.22977 | 6.10496 | 1396 ft | 0 kts | 137° |